Weather at Berlin Tempelhof Airport [CLOSED]

Public forecast

Using degrees Celsius for public forecast. Weather courtesy of forecast.io.

Closest aviation weather report (METAR) to Berlin Tempelhof Airport

Report is more than 6 hours old.

Closest report is Berlin Brandenburg Airport, 7.5 nm (14.0 km) SSE.

2024/06/24 06:20 (retrieved 1 day ago)

EDDB 240620Z AUTO 04005KT 010V080 9999 BKN035 BKN045 19/12 Q1021 NOSIG

Closest aviation forecast (TAF) to Berlin Tempelhof Airport

Forecast is more than 12 hours old.

Closest forecast is Berlin Brandenburg Airport, 7.5 nm (14.0 km) SSE.

2024/06/24 18:30 (retrieved 15 hours ago)

TAF EDDB 241700Z 2418/2518 05004KT CAVOK BECMG 2508/2510 09009KT